Saint Maries, Idaho
Current Conditions -  °F | °C
As of 10:15 PM on Saturday 25 Oct 2014 (Local Time) from KCOE Reporting Station
Overcast Overcast  
Wind Chill: 57°   Ceiling: 7000
Heat Index: 57°   Visibility: 10mi
Dew Point: 43°   Wind: 24mph
Humidity: 59%   Direction: 210°SSW
Pressure: 29.59"   Gusts: 41mph
Location:  47.31°N, 116.56°W
Report Text: KCOE 260515Z AUTO 21021G36KT 10SM FEW060 SCT065 OVC070 14/06 A2959 RMK AO1
Loading
Personal Weather Stations






























Interactive Weather Map
Tropical Storm Tracking
New forecast layout! Learn more

10-Day Weather Forecast

Advertisements
Track Severe Weather on mobile